sim
Sign-in with your pilot id or email,
or register
Callsign
Passwort

Schedule Details

Flight Number: EWG1784 (1)
Departure: Munich Airport (EDDM) at 05:25
Arrival: Cologne Bonn Airport (EDDK) at 06:35
Route: Eurowings Passenger Schedule. Enter filed route here before submitting Pirep.

Weather Information
Getting current METAR information for EDDM 190520Z 06003KT CAVOK 04/04 Q1020 NOSIG
Getting current METAR information for EDDK 190520Z 12004KT 080V170 CAVOK 13/05 Q1019 NOSIG

Schedule Frequency

Route Map